< Typhoon 195907 1959 Season Typhoon 195909 >
Typhoon 195908 (IRIS)
General InformationTrack Information on Google Maps || NewsDisaster Info.ResourceGoogle EarthGE AnimationAtom FeedGeoJSON
Detalied Best Track (Time Zone = UTC)
Year Month Day Hour Lat. Long. Pressure (hPa) Wind (kt) Class Image Chart
1959 8 19 00 15.6 128.1 1006 0 2 -- Chart
1959 8 19 06 15.9 128.1 1006 0 2 -- Chart
1959 8 19 12 16.2 127.9 1006 0 2 -- Chart
1959 8 19 18 16.4 127.0 1000 0 2 -- Chart
1959 8 20 00 16.4 126.1 996 0 9 -- Chart
1959 8 20 06 16.8 125.3 995 0 9 -- Chart
1959 8 20 12 16.9 124.8 990 0 9 -- Chart
1959 8 20 18 17.0 124.1 985 0 9 -- Chart
1959 8 21 00 17.2 123.6 985 0 9 -- Chart
1959 8 21 06 17.9 123.1 985 0 9 -- Chart
1959 8 21 12 18.8 122.5 980 0 9 -- Chart
1959 8 21 18 19.9 121.6 980 0 9 -- Chart
1959 8 22 00 20.4 121.0 978 0 9 -- Chart
1959 8 22 06 21.3 120.1 970 0 9 -- Chart
1959 8 22 12 22.6 119.4 965 0 9 -- Chart
1959 8 22 18 23.9 118.1 965 0 9 -- Chart
1959 8 23 00 25.0 117.8 980 0 9 -- Chart
1959 8 23 06 26.4 114.0 990 0 9 -- Chart
1959 8 23 12 29.2 111.4 995 0 2 -- Chart
1959 8 23 18 30.0 111.0 998 0 2 -- Chart
Japan Meteorological Agency Best Track Data | Correction Date : 1989-06-01
< Typhoon 195907 1959 Season Typhoon 195909 >

Help